sensor_id;sensor_type;location;lat;lon;timestamp;P1;durP1;ratioP1;P2;durP2;ratioP2
45198;SDS011;30941;46.422;18.772;2023-08-01T00:02:19;5.38;;;4.07;;
45198;SDS011;30941;46.422;18.772;2023-08-01T00:04:44;5.85;;;4.13;;
45198;SDS011;30941;46.422;18.772;2023-08-01T00:07:09;9.70;;;4.63;;
45198;SDS011;30941;46.422;18.772;2023-08-01T00:09:35;7.30;;;4.25;;
45198;SDS011;30941;46.422;18.772;2023-08-01T00:12:00;8.00;;;4.10;;
45198;SDS011;30941;46.422;18.772;2023-08-01T00:14:25;6.30;;;4.15;;
45198;SDS011;30941;46.422;18.772;2023-08-01T00:16:51;6.55;;;4.60;;
45198;SDS011;30941;46.422;18.772;2023-08-01T00:19:17;7.05;;;4.50;;
45198;SDS011;30941;46.422;18.772;2023-08-01T00:21:43;7.80;;;4.78;;
45198;SDS011;30941;46.422;18.772;2023-08-01T00:24:08;7.13;;;4.82;;
45198;SDS011;30941;46.422;18.772;2023-08-01T00:26:34;5.93;;;4.30;;
45198;SDS011;30941;46.422;18.772;2023-08-01T00:29:00;6.50;;;4.53;;
45198;SDS011;30941;46.422;18.772;2023-08-01T00:31:26;8.52;;;4.68;;
45198;SDS011;30941;46.422;18.772;2023-08-01T00:33:52;8.32;;;4.20;;
45198;SDS011;30941;46.422;18.772;2023-08-01T00:36:17;7.45;;;4.72;;
45198;SDS011;30941;46.422;18.772;2023-08-01T00:38:42;9.25;;;4.85;;
45198;SDS011;30941;46.422;18.772;2023-08-01T00:41:08;5.70;;;4.28;;
45198;SDS011;30941;46.422;18.772;2023-08-01T00:43:36;7.00;;;4.50;;
45198;SDS011;30941;46.422;18.772;2023-08-01T00:46:03;7.72;;;5.18;;
45198;SDS011;30941;46.422;18.772;2023-08-01T00:48:30;6.82;;;4.80;;
45198;SDS011;30941;46.422;18.772;2023-08-01T00:50:56;8.95;;;5.18;;
45198;SDS011;30941;46.422;18.772;2023-08-01T00:53:22;7.05;;;4.65;;
45198;SDS011;30941;46.422;18.772;2023-08-01T00:55:48;8.02;;;4.65;;
45198;SDS011;30941;46.422;18.772;2023-08-01T00:58:13;5.90;;;4.18;;
45198;SDS011;30941;46.422;18.772;2023-08-01T01:00:39;8.02;;;4.63;;
45198;SDS011;30941;46.422;18.772;2023-08-01T01:03:05;9.30;;;4.63;;
45198;SDS011;30941;46.422;18.772;2023-08-01T01:05:35;5.70;;;3.95;;
45198;SDS011;30941;46.422;18.772;2023-08-01T01:08:02;6.68;;;4.32;;
45198;SDS011;30941;46.422;18.772;2023-08-01T01:10:29;6.55;;;4.28;;
45198;SDS011;30941;46.422;18.772;2023-08-01T01:12:55;8.05;;;4.38;;
45198;SDS011;30941;46.422;18.772;2023-08-01T01:15:20;6.50;;;4.25;;
45198;SDS011;30941;46.422;18.772;2023-08-01T01:17:46;7.53;;;4.55;;
45198;SDS011;30941;46.422;18.772;2023-08-01T01:20:12;6.45;;;4.55;;
45198;SDS011;30941;46.422;18.772;2023-08-01T01:22:38;6.65;;;4.70;;
45198;SDS011;30941;46.422;18.772;2023-08-01T01:25:04;5.97;;;4.30;;
45198;SDS011;30941;46.422;18.772;2023-08-01T01:27:32;6.13;;;3.92;;
45198;SDS011;30941;46.422;18.772;2023-08-01T01:29:59;7.50;;;4.72;;
45198;SDS011;30941;46.422;18.772;2023-08-01T01:32:25;6.53;;;4.40;;
45198;SDS011;30941;46.422;18.772;2023-08-01T01:34:51;5.65;;;4.35;;
45198;SDS011;30941;46.422;18.772;2023-08-01T01:37:17;8.10;;;4.18;;
45198;SDS011;30941;46.422;18.772;2023-08-01T01:39:42;6.63;;;4.70;;
45198;SDS011;30941;46.422;18.772;2023-08-01T01:42:07;5.47;;;4.45;;
45198;SDS011;30941;46.422;18.772;2023-08-01T01:44:33;8.45;;;4.63;;
45198;SDS011;30941;46.422;18.772;2023-08-01T01:46:59;6.70;;;4.50;;
45198;SDS011;30941;46.422;18.772;2023-08-01T01:49:24;7.15;;;4.65;;
45198;SDS011;30941;46.422;18.772;2023-08-01T01:51:51;9.88;;;5.00;;
45198;SDS011;30941;46.422;18.772;2023-08-01T01:54:16;7.15;;;4.63;;
45198;SDS011;30941;46.422;18.772;2023-08-01T01:56:41;7.18;;;4.68;;
45198;SDS011;30941;46.422;18.772;2023-08-01T01:59:07;6.78;;;4.60;;
45198;SDS011;30941;46.422;18.772;2023-08-01T02:01:32;7.80;;;4.60;;
45198;SDS011;30941;46.422;18.772;2023-08-01T02:03:58;7.00;;;4.47;;
45198;SDS011;30941;46.422;18.772;2023-08-01T02:06:23;7.00;;;4.63;;
45198;SDS011;30941;46.422;18.772;2023-08-01T02:08:48;7.45;;;4.60;;
45198;SDS011;30941;46.422;18.772;2023-08-01T02:11:14;7.10;;;5.20;;
45198;SDS011;30941;46.422;18.772;2023-08-01T02:13:39;8.52;;;5.10;;
45198;SDS011;30941;46.422;18.772;2023-08-01T02:16:04;9.50;;;5.05;;
45198;SDS011;30941;46.422;18.772;2023-08-01T02:18:30;7.13;;;5.32;;
45198;SDS011;30941;46.422;18.772;2023-08-01T02:20:55;6.00;;;4.63;;
45198;SDS011;30941;46.422;18.772;2023-08-01T02:23:20;6.22;;;4.03;;
45198;SDS011;30941;46.422;18.772;2023-08-01T02:25:46;5.53;;;4.13;;
45198;SDS011;30941;46.422;18.772;2023-08-01T02:28:11;7.93;;;4.10;;
45198;SDS011;30941;46.422;18.772;2023-08-01T02:30:37;6.70;;;4.05;;
45198;SDS011;30941;46.422;18.772;2023-08-01T02:33:03;5.25;;;4.07;;
45198;SDS011;30941;46.422;18.772;2023-08-01T02:35:28;6.40;;;4.05;;
45198;SDS011;30941;46.422;18.772;2023-08-01T02:37:54;6.68;;;4.35;;
45198;SDS011;30941;46.422;18.772;2023-08-01T02:40:20;6.47;;;4.05;;
45198;SDS011;30941;46.422;18.772;2023-08-01T02:42:46;5.05;;;3.85;;
45198;SDS011;30941;46.422;18.772;2023-08-01T02:45:11;6.32;;;4.47;;
45198;SDS011;30941;46.422;18.772;2023-08-01T02:47:36;6.82;;;4.55;;
45198;SDS011;30941;46.422;18.772;2023-08-01T02:50:02;6.30;;;4.70;;
45198;SDS011;30941;46.422;18.772;2023-08-01T02:52:28;6.15;;;4.65;;
45198;SDS011;30941;46.422;18.772;2023-08-01T02:54:53;6.60;;;4.88;;
45198;SDS011;30941;46.422;18.772;2023-08-01T02:57:18;7.47;;;4.75;;
45198;SDS011;30941;46.422;18.772;2023-08-01T02:59:44;7.22;;;4.47;;
45198;SDS011;30941;46.422;18.772;2023-08-01T03:02:09;5.28;;;4.15;;
45198;SDS011;30941;46.422;18.772;2023-08-01T03:04:35;5.80;;;4.63;;
45198;SDS011;30941;46.422;18.772;2023-08-01T03:07:00;6.65;;;4.50;;
45198;SDS011;30941;46.422;18.772;2023-08-01T03:09:26;6.82;;;4.07;;
45198;SDS011;30941;46.422;18.772;2023-08-01T03:11:51;8.40;;;4.80;;
45198;SDS011;30941;46.422;18.772;2023-08-01T03:14:16;8.57;;;4.88;;
45198;SDS011;30941;46.422;18.772;2023-08-01T03:16:42;6.15;;;4.40;;
45198;SDS011;30941;46.422;18.772;2023-08-01T03:19:07;6.45;;;4.25;;
45198;SDS011;30941;46.422;18.772;2023-08-01T03:21:33;8.73;;;4.70;;
45198;SDS011;30941;46.422;18.772;2023-08-01T03:23:59;7.90;;;4.70;;
45198;SDS011;30941;46.422;18.772;2023-08-01T03:26:25;6.80;;;4.55;;
45198;SDS011;30941;46.422;18.772;2023-08-01T03:28:53;6.45;;;4.22;;
45198;SDS011;30941;46.422;18.772;2023-08-01T03:31:18;6.05;;;4.20;;
45198;SDS011;30941;46.422;18.772;2023-08-01T03:33:44;8.90;;;4.75;;
45198;SDS011;30941;46.422;18.772;2023-08-01T03:36:09;6.30;;;4.45;;
45198;SDS011;30941;46.422;18.772;2023-08-01T03:38:35;6.05;;;4.55;;
45198;SDS011;30941;46.422;18.772;2023-08-01T03:41:00;7.28;;;4.35;;
45198;SDS011;30941;46.422;18.772;2023-08-01T03:43:26;6.43;;;4.72;;
45198;SDS011;30941;46.422;18.772;2023-08-01T03:45:51;8.18;;;4.82;;
45198;SDS011;30941;46.422;18.772;2023-08-01T03:48:17;6.35;;;4.60;;
45198;SDS011;30941;46.422;18.772;2023-08-01T03:50:42;6.50;;;4.55;;
45198;SDS011;30941;46.422;18.772;2023-08-01T03:53:07;6.32;;;4.32;;
45198;SDS011;30941;46.422;18.772;2023-08-01T03:55:33;7.90;;;4.78;;
45198;SDS011;30941;46.422;18.772;2023-08-01T03:57:58;7.03;;;4.75;;
45198;SDS011;30941;46.422;18.772;2023-08-01T04:00:23;9.63;;;5.07;;
45198;SDS011;30941;46.422;18.772;2023-08-01T04:02:49;9.27;;;5.32;;
45198;SDS011;30941;46.422;18.772;2023-08-01T04:05:14;10.00;;;5.75;;
45198;SDS011;30941;46.422;18.772;2023-08-01T04:07:40;7.32;;;5.03;;
45198;SDS011;30941;46.422;18.772;2023-08-01T04:10:06;8.65;;;5.30;;
45198;SDS011;30941;46.422;18.772;2023-08-01T04:12:32;10.05;;;5.03;;
45198;SDS011;30941;46.422;18.772;2023-08-01T04:14:58;9.18;;;5.45;;
45198;SDS011;30941;46.422;18.772;2023-08-01T04:17:24;8.45;;;5.20;;
45198;SDS011;30941;46.422;18.772;2023-08-01T04:19:49;7.57;;;5.00;;
45198;SDS011;30941;46.422;18.772;2023-08-01T04:22:15;8.73;;;5.45;;
45198;SDS011;30941;46.422;18.772;2023-08-01T04:24:41;7.97;;;5.22;;
45198;SDS011;30941;46.422;18.772;2023-08-01T04:27:06;7.10;;;5.40;;
45198;SDS011;30941;46.422;18.772;2023-08-01T04:29:32;8.63;;;5.13;;
45198;SDS011;30941;46.422;18.772;2023-08-01T04:31:57;11.15;;;5.85;;
45198;SDS011;30941;46.422;18.772;2023-08-01T04:34:22;8.02;;;5.45;;
45198;SDS011;30941;46.422;18.772;2023-08-01T04:36:48;6.93;;;5.55;;
45198;SDS011;30941;46.422;18.772;2023-08-01T04:39:13;8.73;;;5.53;;
45198;SDS011;30941;46.422;18.772;2023-08-01T04:41:38;10.98;;;6.18;;
45198;SDS011;30941;46.422;18.772;2023-08-01T04:44:04;11.40;;;6.28;;
45198;SDS011;30941;46.422;18.772;2023-08-01T04:46:29;10.55;;;6.60;;
45198;SDS011;30941;46.422;18.772;2023-08-01T04:48:55;8.63;;;5.50;;
45198;SDS011;30941;46.422;18.772;2023-08-01T04:51:20;9.82;;;5.13;;
45198;SDS011;30941;46.422;18.772;2023-08-01T04:53:45;9.63;;;5.13;;
45198;SDS011;30941;46.422;18.772;2023-08-01T04:56:11;8.13;;;5.72;;
45198;SDS011;30941;46.422;18.772;2023-08-01T04:58:36;9.32;;;5.53;;
45198;SDS011;30941;46.422;18.772;2023-08-01T05:01:01;8.18;;;5.35;;
45198;SDS011;30941;46.422;18.772;2023-08-01T05:03:27;8.52;;;5.55;;
45198;SDS011;30941;46.422;18.772;2023-08-01T05:05:52;6.70;;;5.32;;
45198;SDS011;30941;46.422;18.772;2023-08-01T05:08:18;10.25;;;5.43;;
45198;SDS011;30941;46.422;18.772;2023-08-01T05:10:43;15.55;;;6.38;;
45198;SDS011;30941;46.422;18.772;2023-08-01T05:13:09;11.75;;;5.93;;
45198;SDS011;30941;46.422;18.772;2023-08-01T05:15:34;18.33;;;6.88;;
45198;SDS011;30941;46.422;18.772;2023-08-01T05:17:59;8.38;;;5.15;;
45198;SDS011;30941;46.422;18.772;2023-08-01T05:20:25;8.48;;;4.88;;
45198;SDS011;30941;46.422;18.772;2023-08-01T05:22:55;12.90;;;5.22;;
45198;SDS011;30941;46.422;18.772;2023-08-01T05:25:22;10.30;;;4.82;;
45198;SDS011;30941;46.422;18.772;2023-08-01T05:27:47;5.93;;;3.78;;
45198;SDS011;30941;46.422;18.772;2023-08-01T05:30:13;9.57;;;4.80;;
45198;SDS011;30941;46.422;18.772;2023-08-01T05:32:38;8.50;;;4.63;;
45198;SDS011;30941;46.422;18.772;2023-08-01T05:35:05;10.00;;;5.07;;
45198;SDS011;30941;46.422;18.772;2023-08-01T05:37:31;5.65;;;4.00;;
45198;SDS011;30941;46.422;18.772;2023-08-01T05:39:56;7.05;;;3.97;;
45198;SDS011;30941;46.422;18.772;2023-08-01T05:42:22;7.38;;;4.43;;
45198;SDS011;30941;46.422;18.772;2023-08-01T05:44:47;10.25;;;4.50;;
45198;SDS011;30941;46.422;18.772;2023-08-01T05:47:12;6.30;;;4.22;;
45198;SDS011;30941;46.422;18.772;2023-08-01T05:49:38;5.35;;;3.70;;
45198;SDS011;30941;46.422;18.772;2023-08-01T05:52:03;9.90;;;3.67;;
45198;SDS011;30941;46.422;18.772;2023-08-01T05:54:29;6.55;;;3.85;;
45198;SDS011;30941;46.422;18.772;2023-08-01T05:56:54;7.50;;;3.50;;
45198;SDS011;30941;46.422;18.772;2023-08-01T05:59:20;6.13;;;3.55;;
45198;SDS011;30941;46.422;18.772;2023-08-01T06:01:46;7.82;;;3.70;;
45198;SDS011;30941;46.422;18.772;2023-08-01T06:04:11;4.75;;;3.35;;
45198;SDS011;30941;46.422;18.772;2023-08-01T06:06:37;6.53;;;3.75;;
45198;SDS011;30941;46.422;18.772;2023-08-01T06:09:02;9.00;;;4.32;;
45198;SDS011;30941;46.422;18.772;2023-08-01T06:11:27;6.97;;;3.72;;
45198;SDS011;30941;46.422;18.772;2023-08-01T06:13:53;5.35;;;3.45;;
45198;SDS011;30941;46.422;18.772;2023-08-01T06:16:19;5.70;;;3.58;;
45198;SDS011;30941;46.422;18.772;2023-08-01T06:18:44;5.68;;;3.25;;
45198;SDS011;30941;46.422;18.772;2023-08-01T06:21:09;7.20;;;3.63;;
45198;SDS011;30941;46.422;18.772;2023-08-01T06:23:35;7.15;;;3.40;;
45198;SDS011;30941;46.422;18.772;2023-08-01T06:26:00;5.82;;;3.45;;
45198;SDS011;30941;46.422;18.772;2023-08-01T06:28:25;7.50;;;3.90;;
45198;SDS011;30941;46.422;18.772;2023-08-01T06:30:51;5.43;;;2.90;;
45198;SDS011;30941;46.422;18.772;2023-08-01T06:33:16;4.25;;;3.00;;
45198;SDS011;30941;46.422;18.772;2023-08-01T06:35:41;4.22;;;3.05;;
45198;SDS011;30941;46.422;18.772;2023-08-01T06:38:07;5.28;;;3.60;;
45198;SDS011;30941;46.422;18.772;2023-08-01T06:40:32;9.13;;;3.20;;
45198;SDS011;30941;46.422;18.772;2023-08-01T06:42:57;5.20;;;3.00;;
45198;SDS011;30941;46.422;18.772;2023-08-01T06:45:23;4.07;;;2.70;;
45198;SDS011;30941;46.422;18.772;2023-08-01T06:47:48;4.68;;;2.83;;
45198;SDS011;30941;46.422;18.772;2023-08-01T06:50:14;6.82;;;3.30;;
45198;SDS011;30941;46.422;18.772;2023-08-01T06:52:39;5.03;;;2.80;;
45198;SDS011;30941;46.422;18.772;2023-08-01T06:55:04;7.15;;;3.42;;
45198;SDS011;30941;46.422;18.772;2023-08-01T06:57:30;4.43;;;2.50;;
45198;SDS011;30941;46.422;18.772;2023-08-01T06:59:55;4.78;;;2.42;;
45198;SDS011;30941;46.422;18.772;2023-08-01T07:02:21;4.13;;;2.90;;
45198;SDS011;30941;46.422;18.772;2023-08-01T07:04:47;7.82;;;2.90;;
45198;SDS011;30941;46.422;18.772;2023-08-01T07:07:12;6.68;;;2.80;;
45198;SDS011;30941;46.422;18.772;2023-08-01T07:09:38;6.38;;;2.70;;
45198;SDS011;30941;46.422;18.772;2023-08-01T07:12:03;6.15;;;2.83;;
45198;SDS011;30941;46.422;18.772;2023-08-01T07:14:29;5.45;;;2.70;;
45198;SDS011;30941;46.422;18.772;2023-08-01T07:16:54;6.45;;;2.70;;
45198;SDS011;30941;46.422;18.772;2023-08-01T07:19:20;3.67;;;2.38;;
45198;SDS011;30941;46.422;18.772;2023-08-01T07:21:45;4.30;;;2.63;;
45198;SDS011;30941;46.422;18.772;2023-08-01T07:24:12;4.15;;;2.72;;
45198;SDS011;30941;46.422;18.772;2023-08-01T07:26:39;5.00;;;2.63;;
45198;SDS011;30941;46.422;18.772;2023-08-01T07:29:04;6.15;;;2.80;;
45198;SDS011;30941;46.422;18.772;2023-08-01T07:31:30;3.83;;;2.10;;
45198;SDS011;30941;46.422;18.772;2023-08-01T07:33:55;6.10;;;2.53;;
45198;SDS011;30941;46.422;18.772;2023-08-01T07:36:21;4.07;;;2.60;;
45198;SDS011;30941;46.422;18.772;2023-08-01T07:38:46;3.63;;;2.53;;
45198;SDS011;30941;46.422;18.772;2023-08-01T07:41:12;6.25;;;2.63;;
45198;SDS011;30941;46.422;18.772;2023-08-01T07:43:37;5.00;;;2.50;;
45198;SDS011;30941;46.422;18.772;2023-08-01T07:46:03;4.68;;;2.85;;
45198;SDS011;30941;46.422;18.772;2023-08-01T07:48:28;3.95;;;2.58;;
45198;SDS011;30941;46.422;18.772;2023-08-01T07:50:54;4.75;;;2.60;;
45198;SDS011;30941;46.422;18.772;2023-08-01T07:53:19;4.70;;;2.47;;
45198;SDS011;30941;46.422;18.772;2023-08-01T07:55:44;5.00;;;2.50;;
45198;SDS011;30941;46.422;18.772;2023-08-01T07:58:10;7.40;;;2.60;;
45198;SDS011;30941;46.422;18.772;2023-08-01T08:00:35;3.75;;;2.55;;
45198;SDS011;30941;46.422;18.772;2023-08-01T08:03:01;8.23;;;3.13;;
45198;SDS011;30941;46.422;18.772;2023-08-01T08:05:26;5.30;;;2.78;;
45198;SDS011;30941;46.422;18.772;2023-08-01T08:07:51;3.33;;;2.20;;
45198;SDS011;30941;46.422;18.772;2023-08-01T08:10:17;6.90;;;2.80;;
45198;SDS011;30941;46.422;18.772;2023-08-01T08:12:42;5.97;;;2.50;;
45198;SDS011;30941;46.422;18.772;2023-08-01T08:15:07;5.70;;;2.60;;
45198;SDS011;30941;46.422;18.772;2023-08-01T08:17:33;5.05;;;2.53;;
45198;SDS011;30941;46.422;18.772;2023-08-01T08:19:58;6.00;;;2.53;;
45198;SDS011;30941;46.422;18.772;2023-08-01T08:22:24;7.05;;;2.78;;
45198;SDS011;30941;46.422;18.772;2023-08-01T08:24:49;5.82;;;2.90;;
45198;SDS011;30941;46.422;18.772;2023-08-01T08:27:15;3.95;;;2.63;;
45198;SDS011;30941;46.422;18.772;2023-08-01T08:29:40;4.30;;;2.30;;
45198;SDS011;30941;46.422;18.772;2023-08-01T08:32:05;4.85;;;2.53;;
45198;SDS011;30941;46.422;18.772;2023-08-01T08:34:31;3.22;;;2.38;;
45198;SDS011;30941;46.422;18.772;2023-08-01T08:36:57;4.32;;;2.55;;
45198;SDS011;30941;46.422;18.772;2023-08-01T08:39:22;6.25;;;3.35;;
45198;SDS011;30941;46.422;18.772;2023-08-01T08:41:48;3.63;;;2.40;;
45198;SDS011;30941;46.422;18.772;2023-08-01T08:44:17;4.30;;;2.28;;
45198;SDS011;30941;46.422;18.772;2023-08-01T08:46:45;7.63;;;2.50;;
45198;SDS011;30941;46.422;18.772;2023-08-01T08:49:17;4.60;;;2.67;;
45198;SDS011;30941;46.422;18.772;2023-08-01T08:51:44;4.93;;;2.85;;
45198;SDS011;30941;46.422;18.772;2023-08-01T08:54:10;7.63;;;2.78;;
45198;SDS011;30941;46.422;18.772;2023-08-01T08:56:36;6.47;;;2.58;;
45198;SDS011;30941;46.422;18.772;2023-08-01T08:59:03;5.60;;;2.80;;
45198;SDS011;30941;46.422;18.772;2023-08-01T09:01:29;5.15;;;2.65;;
45198;SDS011;30941;46.422;18.772;2023-08-01T09:03:56;5.05;;;2.75;;
45198;SDS011;30941;46.422;18.772;2023-08-01T09:06:28;4.22;;;2.80;;
45198;SDS011;30941;46.422;18.772;2023-08-01T09:08:58;3.95;;;2.63;;
45198;SDS011;30941;46.422;18.772;2023-08-01T09:11:34;7.72;;;2.83;;
45198;SDS011;30941;46.422;18.772;2023-08-01T09:14:03;6.03;;;2.78;;
45198;SDS011;30941;46.422;18.772;2023-08-01T09:16:29;8.68;;;2.55;;
45198;SDS011;30941;46.422;18.772;2023-08-01T09:18:54;14.60;;;3.17;;
45198;SDS011;30941;46.422;18.772;2023-08-01T09:21:20;5.30;;;2.80;;
45198;SDS011;30941;46.422;18.772;2023-08-01T09:23:46;14.40;;;3.10;;
45198;SDS011;30941;46.422;18.772;2023-08-01T09:26:15;4.82;;;2.60;;
45198;SDS011;30941;46.422;18.772;2023-08-01T09:28:41;3.28;;;2.15;;
45198;SDS011;30941;46.422;18.772;2023-08-01T09:31:06;5.15;;;2.65;;
45198;SDS011;30941;46.422;18.772;2023-08-01T09:33:39;5.32;;;2.30;;
45198;SDS011;30941;46.422;18.772;2023-08-01T09:36:05;7.22;;;2.28;;
45198;SDS011;30941;46.422;18.772;2023-08-01T09:38:33;4.82;;;2.42;;
45198;SDS011;30941;46.422;18.772;2023-08-01T09:40:59;9.00;;;2.63;;
45198;SDS011;30941;46.422;18.772;2023-08-01T09:43:25;6.57;;;3.00;;
45198;SDS011;30941;46.422;18.772;2023-08-01T09:45:58;6.65;;;2.90;;
45198;SDS011;30941;46.422;18.772;2023-08-01T09:48:27;3.20;;;2.38;;
45198;SDS011;30941;46.422;18.772;2023-08-01T09:51:06;5.30;;;2.60;;
45198;SDS011;30941;46.422;18.772;2023-08-01T09:53:32;3.78;;;2.22;;
45198;SDS011;30941;46.422;18.772;2023-08-01T09:56:01;4.25;;;2.60;;
45198;SDS011;30941;46.422;18.772;2023-08-01T09:58:30;4.00;;;2.10;;
45198;SDS011;30941;46.422;18.772;2023-08-01T10:00:58;8.48;;;2.60;;
45198;SDS011;30941;46.422;18.772;2023-08-01T10:03:25;3.33;;;2.10;;
45198;SDS011;30941;46.422;18.772;2023-08-01T10:05:52;3.85;;;2.50;;
45198;SDS011;30941;46.422;18.772;2023-08-01T10:08:19;2.88;;;2.10;;
45198;SDS011;30941;46.422;18.772;2023-08-01T10:10:46;5.28;;;2.33;;
45198;SDS011;30941;46.422;18.772;2023-08-01T10:13:12;7.60;;;2.50;;
45198;SDS011;30941;46.422;18.772;2023-08-01T10:15:38;3.53;;;2.30;;
45198;SDS011;30941;46.422;18.772;2023-08-01T10:18:04;4.15;;;2.40;;
45198;SDS011;30941;46.422;18.772;2023-08-01T10:20:30;5.68;;;2.53;;
45198;SDS011;30941;46.422;18.772;2023-08-01T10:22:56;4.28;;;2.60;;
45198;SDS011;30941;46.422;18.772;2023-08-01T10:25:22;3.13;;;2.20;;
45198;SDS011;30941;46.422;18.772;2023-08-01T10:30:26;4.95;;;2.17;;
45198;SDS011;30941;46.422;18.772;2023-08-01T10:32:54;6.20;;;2.38;;
45198;SDS011;30941;46.422;18.772;2023-08-01T10:35:30;3.47;;;2.22;;
45198;SDS011;30941;46.422;18.772;2023-08-01T10:38:03;4.70;;;2.30;;
45198;SDS011;30941;46.422;18.772;2023-08-01T10:40:41;3.70;;;2.25;;
45198;SDS011;30941;46.422;18.772;2023-08-01T10:43:23;3.67;;;2.10;;
45198;SDS011;30941;46.422;18.772;2023-08-01T10:46:04;4.13;;;2.42;;
45198;SDS011;30941;46.422;18.772;2023-08-01T10:48:30;5.07;;;2.30;;
45198;SDS011;30941;46.422;18.772;2023-08-01T10:50:56;7.55;;;2.40;;
45198;SDS011;30941;46.422;18.772;2023-08-01T10:53:21;5.60;;;2.20;;
45198;SDS011;30941;46.422;18.772;2023-08-01T10:55:47;4.65;;;2.42;;
45198;SDS011;30941;46.422;18.772;2023-08-01T10:58:13;3.03;;;2.00;;
45198;SDS011;30941;46.422;18.772;2023-08-01T11:00:39;4.07;;;2.20;;
45198;SDS011;30941;46.422;18.772;2023-08-01T11:03:04;3.63;;;2.10;;
45198;SDS011;30941;46.422;18.772;2023-08-01T11:05:30;3.25;;;2.20;;
45198;SDS011;30941;46.422;18.772;2023-08-01T11:07:55;2.65;;;2.22;;
45198;SDS011;30941;46.422;18.772;2023-08-01T11:10:22;4.53;;;2.40;;
45198;SDS011;30941;46.422;18.772;2023-08-01T11:12:48;3.08;;;2.08;;
45198;SDS011;30941;46.422;18.772;2023-08-01T11:15:14;10.10;;;3.17;;
45198;SDS011;30941;46.422;18.772;2023-08-01T11:17:40;3.65;;;2.42;;
45198;SDS011;30941;46.422;18.772;2023-08-01T11:20:10;6.05;;;2.10;;
45198;SDS011;30941;46.422;18.772;2023-08-01T11:22:36;5.10;;;2.38;;
45198;SDS011;30941;46.422;18.772;2023-08-01T11:25:03;4.28;;;2.40;;
45198;SDS011;30941;46.422;18.772;2023-08-01T11:27:29;4.28;;;2.13;;
45198;SDS011;30941;46.422;18.772;2023-08-01T11:29:55;5.85;;;2.15;;
45198;SDS011;30941;46.422;18.772;2023-08-01T11:32:21;3.03;;;1.90;;
45198;SDS011;30941;46.422;18.772;2023-08-01T11:34:48;3.30;;;2.20;;
45198;SDS011;30941;46.422;18.772;2023-08-01T11:37:14;6.47;;;2.60;;
45198;SDS011;30941;46.422;18.772;2023-08-01T11:39:42;3.90;;;2.10;;
45198;SDS011;30941;46.422;18.772;2023-08-01T11:42:08;6.40;;;2.22;;
45198;SDS011;30941;46.422;18.772;2023-08-01T11:44:39;3.00;;;1.90;;
45198;SDS011;30941;46.422;18.772;2023-08-01T11:47:09;3.65;;;1.95;;
45198;SDS011;30941;46.422;18.772;2023-08-01T11:49:38;4.43;;;1.95;;
45198;SDS011;30941;46.422;18.772;2023-08-01T11:52:04;5.32;;;2.25;;
45198;SDS011;30941;46.422;18.772;2023-08-01T11:54:30;6.13;;;2.17;;
45198;SDS011;30941;46.422;18.772;2023-08-01T11:57:00;4.47;;;1.80;;
45198;SDS011;30941;46.422;18.772;2023-08-01T11:59:26;6.05;;;2.17;;
45198;SDS011;30941;46.422;18.772;2023-08-01T12:01:51;3.60;;;2.17;;
45198;SDS011;30941;46.422;18.772;2023-08-01T12:04:29;5.47;;;2.00;;
45198;SDS011;30941;46.422;18.772;2023-08-01T12:06:54;2.80;;;1.95;;
45198;SDS011;30941;46.422;18.772;2023-08-01T12:09:21;5.18;;;2.20;;
45198;SDS011;30941;46.422;18.772;2023-08-01T12:11:46;4.82;;;1.80;;
45198;SDS011;30941;46.422;18.772;2023-08-01T12:14:23;3.35;;;2.10;;
45198;SDS011;30941;46.422;18.772;2023-08-01T12:16:48;6.38;;;2.33;;
45198;SDS011;30941;46.422;18.772;2023-08-01T12:19:17;3.53;;;1.90;;
45198;SDS011;30941;46.422;18.772;2023-08-01T12:21:44;6.47;;;2.33;;
45198;SDS011;30941;46.422;18.772;2023-08-01T12:24:10;2.85;;;2.13;;
45198;SDS011;30941;46.422;18.772;2023-08-01T12:26:35;2.75;;;1.98;;
45198;SDS011;30941;46.422;18.772;2023-08-01T12:29:00;5.38;;;2.10;;
45198;SDS011;30941;46.422;18.772;2023-08-01T12:31:26;3.85;;;2.30;;
45198;SDS011;30941;46.422;18.772;2023-08-01T12:33:51;3.95;;;2.35;;
45198;SDS011;30941;46.422;18.772;2023-08-01T12:36:18;5.63;;;2.38;;
45198;SDS011;30941;46.422;18.772;2023-08-01T12:38:44;4.90;;;2.45;;
45198;SDS011;30941;46.422;18.772;2023-08-01T12:41:09;25.95;;;4.38;;
45198;SDS011;30941;46.422;18.772;2023-08-01T12:43:36;9.48;;;3.30;;
45198;SDS011;30941;46.422;18.772;2023-08-01T12:46:01;7.15;;;2.83;;
45198;SDS011;30941;46.422;18.772;2023-08-01T12:48:27;9.73;;;2.70;;
45198;SDS011;30941;46.422;18.772;2023-08-01T12:50:53;10.23;;;3.63;;
45198;SDS011;30941;46.422;18.772;2023-08-01T12:53:18;5.18;;;2.83;;
45198;SDS011;30941;46.422;18.772;2023-08-01T12:55:44;4.97;;;2.60;;
45198;SDS011;30941;46.422;18.772;2023-08-01T12:58:11;3.17;;;1.98;;
45198;SDS011;30941;46.422;18.772;2023-08-01T13:00:37;6.43;;;1.92;;
45198;SDS011;30941;46.422;18.772;2023-08-01T13:03:02;5.45;;;2.17;;
45198;SDS011;30941;46.422;18.772;2023-08-01T13:05:28;3.22;;;1.90;;
45198;SDS011;30941;46.422;18.772;2023-08-01T13:07:53;4.63;;;2.03;;
45198;SDS011;30941;46.422;18.772;2023-08-01T13:10:19;20.58;;;4.03;;
45198;SDS011;30941;46.422;18.772;2023-08-01T13:12:44;6.15;;;1.90;;
45198;SDS011;30941;46.422;18.772;2023-08-01T13:15:09;6.28;;;2.63;;
45198;SDS011;30941;46.422;18.772;2023-08-01T13:17:35;7.20;;;2.40;;
45198;SDS011;30941;46.422;18.772;2023-08-01T13:20:00;9.85;;;2.70;;
45198;SDS011;30941;46.422;18.772;2023-08-01T13:22:26;6.22;;;2.28;;
45198;SDS011;30941;46.422;18.772;2023-08-01T13:24:51;3.42;;;1.90;;
45198;SDS011;30941;46.422;18.772;2023-08-01T13:27:16;3.40;;;1.90;;
45198;SDS011;30941;46.422;18.772;2023-08-01T13:29:42;4.70;;;1.90;;
45198;SDS011;30941;46.422;18.772;2023-08-01T13:32:07;2.63;;;2.10;;
45198;SDS011;30941;46.422;18.772;2023-08-01T13:34:33;3.03;;;2.13;;
45198;SDS011;30941;46.422;18.772;2023-08-01T13:36:58;4.75;;;1.98;;
45198;SDS011;30941;46.422;18.772;2023-08-01T13:39:23;3.28;;;2.10;;
45198;SDS011;30941;46.422;18.772;2023-08-01T13:41:49;3.10;;;1.70;;
45198;SDS011;30941;46.422;18.772;2023-08-01T13:44:14;4.88;;;1.98;;
45198;SDS011;30941;46.422;18.772;2023-08-01T13:46:39;5.88;;;2.05;;
45198;SDS011;30941;46.422;18.772;2023-08-01T13:49:05;4.57;;;2.05;;
45198;SDS011;30941;46.422;18.772;2023-08-01T13:51:31;5.47;;;2.10;;
45198;SDS011;30941;46.422;18.772;2023-08-01T13:53:57;2.92;;;2.00;;
45198;SDS011;30941;46.422;18.772;2023-08-01T13:56:24;4.07;;;2.05;;
45198;SDS011;30941;46.422;18.772;2023-08-01T13:58:50;4.30;;;2.30;;
45198;SDS011;30941;46.422;18.772;2023-08-01T14:01:15;4.18;;;2.00;;
45198;SDS011;30941;46.422;18.772;2023-08-01T14:03:41;4.93;;;2.15;;
45198;SDS011;30941;46.422;18.772;2023-08-01T14:06:07;4.90;;;1.80;;
45198;SDS011;30941;46.422;18.772;2023-08-01T14:08:33;5.10;;;2.30;;
45198;SDS011;30941;46.422;18.772;2023-08-01T14:11:00;3.83;;;2.00;;
45198;SDS011;30941;46.422;18.772;2023-08-01T14:13:29;3.38;;;1.95;;
45198;SDS011;30941;46.422;18.772;2023-08-01T14:15:54;5.70;;;2.03;;
45198;SDS011;30941;46.422;18.772;2023-08-01T14:18:20;2.63;;;1.98;;
45198;SDS011;30941;46.422;18.772;2023-08-01T14:20:45;4.32;;;2.10;;
45198;SDS011;30941;46.422;18.772;2023-08-01T14:23:11;4.88;;;2.20;;
45198;SDS011;30941;46.422;18.772;2023-08-01T14:25:36;3.30;;;2.00;;
45198;SDS011;30941;46.422;18.772;2023-08-01T14:28:01;4.13;;;1.80;;
45198;SDS011;30941;46.422;18.772;2023-08-01T14:30:27;3.35;;;1.83;;